createdAt,value
2018-10-12T00:00:35.020Z,13.23
2018-10-12T00:03:03.361Z,14.50
2018-10-12T00:05:31.696Z,13.40
2018-10-12T00:08:00.039Z,13.60
2018-10-12T00:10:28.357Z,16.50
2018-10-12T00:12:56.662Z,15.83
2018-10-12T00:15:24.995Z,13.10
2018-10-12T00:17:53.383Z,13.87
2018-10-12T00:20:21.723Z,14.80
2018-10-12T00:22:50.087Z,16.10
2018-10-12T00:25:18.499Z,14.43
2018-10-12T00:27:46.832Z,20.30
2018-10-12T00:30:15.134Z,13.37
2018-10-12T00:32:43.974Z,14.70
2018-10-12T00:35:12.195Z,15.27
2018-10-12T00:37:40.354Z,17.57
2018-10-12T00:40:08.594Z,14.30
2018-10-12T00:42:36.823Z,14.63
2018-10-12T00:45:05.136Z,14.20
2018-10-12T00:47:33.326Z,15.13
2018-10-12T00:50:01.481Z,13.97
2018-10-12T00:52:29.666Z,16.00
2018-10-12T00:54:57.987Z,16.93
2018-10-12T00:57:26.186Z,17.53
2018-10-12T00:59:54.588Z,14.80
2018-10-12T01:02:22.732Z,15.33
2018-10-12T01:04:50.918Z,14.43
2018-10-12T01:07:19.098Z,19.30
2018-10-12T01:09:47.296Z,18.80
2018-10-12T01:12:27.214Z,19.17
2018-10-12T01:14:55.447Z,15.93
2018-10-12T01:17:23.611Z,17.23
2018-10-12T01:19:51.781Z,16.70
2018-10-12T01:22:19.955Z,18.53
2018-10-12T01:24:48.635Z,15.33
2018-10-12T01:27:16.811Z,19.87
2018-10-12T01:29:44.995Z,15.23
2018-10-12T01:32:18.579Z,16.80
2018-10-12T01:34:46.739Z,16.17
2018-10-12T01:37:15.122Z,19.67
2018-10-12T01:39:43.262Z,15.00
2018-10-12T01:42:11.479Z,19.77
2018-10-12T01:44:40.036Z,21.23
2018-10-12T01:47:08.232Z,22.83
2018-10-12T01:49:36.882Z,21.77
2018-10-12T01:52:05.278Z,21.03
2018-10-12T01:54:33.427Z,22.13
2018-10-12T01:57:01.609Z,17.87
2018-10-12T01:59:29.795Z,18.73
2018-10-12T02:01:57.991Z,17.80
2018-10-12T02:04:26.131Z,18.00
2018-10-12T02:06:54.271Z,18.93
2018-10-12T02:09:22.439Z,17.17
2018-10-12T02:11:50.628Z,16.13
2018-10-12T02:14:18.798Z,15.87
2018-10-12T02:16:46.962Z,18.13
2018-10-12T02:19:15.110Z,18.60
2018-10-12T02:21:43.239Z,16.07
2018-10-12T02:24:11.454Z,14.37
2018-10-12T02:26:39.650Z,18.40
2018-10-12T02:29:07.822Z,16.67
2018-10-12T02:31:35.975Z,17.53
2018-10-12T02:34:04.127Z,15.70
2018-10-12T02:36:32.288Z,14.97
2018-10-12T02:39:00.456Z,18.27
2018-10-12T02:41:28.624Z,15.67
2018-10-12T02:43:56.799Z,16.10
2018-10-12T02:46:24.954Z,15.40
2018-10-12T02:48:53.368Z,14.93
2018-10-12T02:51:21.540Z,14.67
2018-10-12T02:53:49.704Z,18.70
2018-10-12T02:56:21.578Z,14.83
2018-10-12T02:58:50.592Z,15.47
2018-10-12T03:01:19.323Z,18.40
2018-10-12T03:03:47.540Z,19.63
2018-10-12T03:06:16.162Z,15.17
2018-10-12T03:08:44.415Z,17.00
2018-10-12T03:11:12.659Z,19.47
2018-10-12T03:13:41.347Z,17.23
2018-10-12T03:16:09.519Z,18.23
2018-10-12T03:18:37.666Z,16.17
2018-10-12T03:21:05.917Z,14.77
2018-10-12T03:23:34.071Z,14.80
2018-10-12T03:26:02.281Z,14.50
2018-10-12T03:28:31.910Z,17.10
2018-10-12T03:31:00.662Z,15.10
2018-10-12T03:33:29.239Z,16.73
2018-10-12T03:35:57.830Z,19.60
2018-10-12T03:38:26.028Z,14.83
2018-10-12T03:40:54.269Z,16.80
2018-10-12T03:43:22.452Z,14.67
2018-10-12T03:45:50.658Z,14.43
2018-10-12T03:48:18.811Z,16.17
2018-10-12T03:50:46.995Z,16.07
2018-10-12T03:53:15.485Z,14.60
2018-10-12T03:55:43.831Z,17.53
2018-10-12T03:58:11.979Z,14.57
2018-10-12T04:00:40.142Z,15.10
2018-10-12T04:03:08.531Z,19.90
2018-10-12T04:05:36.655Z,16.73
2018-10-12T04:08:04.822Z,19.90
2018-10-12T04:10:33.027Z,17.37
2018-10-12T04:13:01.162Z,13.97
2018-10-12T04:15:29.326Z,17.27
2018-10-12T04:17:57.714Z,19.30
2018-10-12T04:20:25.846Z,17.17
2018-10-12T04:22:54.062Z,14.57
2018-10-12T04:25:22.511Z,15.90
2018-10-12T04:27:50.791Z,14.53
2018-10-12T04:30:18.954Z,15.37
2018-10-12T04:32:47.121Z,15.70
2018-10-12T04:35:15.243Z,14.33
2018-10-12T04:37:43.406Z,18.00
2018-10-12T04:41:20.489Z,24.90
2018-10-12T04:43:49.968Z,21.60
2018-10-12T04:46:24.158Z,17.53
2018-10-12T04:48:52.567Z,19.07
2018-10-12T04:51:23.819Z,16.70
2018-10-12T04:53:52.202Z,22.57
2018-10-12T04:56:21.279Z,16.20
2018-10-12T04:58:49.440Z,15.83
2018-10-12T05:01:17.669Z,26.77
2018-10-12T05:03:45.804Z,16.53
2018-10-12T05:06:14.043Z,22.07
2018-10-12T05:08:42.199Z,19.03
2018-10-12T05:11:10.358Z,25.07
2018-10-12T05:13:38.535Z,21.43
2018-10-12T05:16:07.209Z,20.27
2018-10-12T05:18:35.397Z,24.13
2018-10-12T05:21:04.125Z,19.27
2018-10-12T05:23:32.290Z,26.37
2018-10-12T05:26:01.136Z,21.33
2018-10-12T05:28:30.838Z,20.57
2018-10-12T05:30:59.006Z,20.13
2018-10-12T05:33:27.164Z,17.43
2018-10-12T05:35:55.317Z,18.73
2018-10-12T05:38:24.335Z,19.63
2018-10-12T05:40:52.760Z,19.20
2018-10-12T05:43:21.107Z,17.37
2018-10-12T05:45:49.416Z,19.03
2018-10-12T05:48:29.151Z,15.17
2018-10-12T05:50:58.654Z,18.40
2018-10-12T05:53:26.852Z,14.80
2018-10-12T05:55:55.094Z,18.60
2018-10-12T05:58:23.238Z,15.63
2018-10-12T06:00:51.385Z,15.50
2018-10-12T06:03:19.527Z,17.53
2018-10-12T06:05:47.730Z,19.70
2018-10-12T06:08:15.908Z,21.37
2018-10-12T06:10:44.067Z,15.83
2018-10-12T06:13:12.262Z,17.80
2018-10-12T06:15:40.598Z,20.40
2018-10-12T06:18:09.769Z,17.27
2018-10-12T06:20:38.298Z,20.93
2018-10-12T06:23:06.591Z,16.80
2018-10-12T06:25:35.028Z,19.43
2018-10-12T06:28:03.438Z,18.30
2018-10-12T06:30:31.678Z,19.47
2018-10-12T06:32:59.930Z,20.60
2018-10-12T06:35:28.553Z,18.03
2018-10-12T06:37:56.896Z,15.77
2018-10-12T06:40:25.076Z,19.77
2018-10-12T06:42:53.237Z,16.33
2018-10-12T06:45:21.383Z,19.73
2018-10-12T06:47:49.556Z,19.80
2018-10-12T06:50:17.726Z,22.80
2018-10-12T06:52:46.007Z,17.53
2018-10-12T06:55:14.202Z,17.03
2018-10-12T06:57:42.354Z,21.30
2018-10-12T07:00:10.529Z,21.67
2018-10-12T07:02:38.665Z,20.77
2018-10-12T07:05:06.825Z,26.70
2018-10-12T07:07:35.115Z,25.33
2018-10-12T07:10:03.284Z,22.30
2018-10-12T07:12:31.483Z,18.67
2018-10-12T07:14:59.687Z,21.63
2018-10-12T07:17:27.835Z,20.37
2018-10-12T07:19:56.023Z,20.00
2018-10-12T07:22:24.249Z,18.07
2018-10-12T07:24:52.409Z,17.53
2018-10-12T07:27:20.595Z,18.20
2018-10-12T07:29:48.753Z,19.03
2018-10-12T07:32:16.923Z,21.23
2018-10-12T07:34:45.239Z,16.50
2018-10-12T07:37:13.478Z,23.40
2018-10-12T07:39:41.619Z,20.17
2018-10-12T07:42:09.944Z,17.13
2018-10-12T07:44:38.197Z,18.57
2018-10-12T07:47:06.356Z,17.57
2018-10-12T07:49:34.535Z,19.93
2018-10-12T07:52:02.697Z,15.47
2018-10-12T07:54:30.861Z,22.33
2018-10-12T07:57:03.267Z,20.57
2018-10-12T07:59:31.475Z,19.80
2018-10-12T08:01:59.639Z,20.20
2018-10-12T08:04:27.802Z,20.17
2018-10-12T08:06:55.971Z,22.07
2018-10-12T08:09:24.223Z,23.70
2018-10-12T08:11:52.392Z,23.50
2018-10-12T08:14:20.815Z,21.20
2018-10-12T08:16:48.784Z,21.30
2018-10-12T08:19:16.965Z,19.87
2018-10-12T08:21:45.398Z,18.00
2018-10-12T08:24:13.571Z,13.60
2018-10-12T08:26:41.744Z,17.03
2018-10-12T08:29:09.922Z,15.63
2018-10-12T08:31:38.209Z,16.47
2018-10-12T08:34:06.358Z,13.77
2018-10-12T08:36:34.581Z,21.83
2018-10-12T08:39:02.700Z,14.20
2018-10-12T08:41:30.866Z,17.00
2018-10-12T08:43:59.036Z,13.63
2018-10-12T08:46:27.174Z,16.40
2018-10-12T08:48:55.416Z,19.83
2018-10-12T08:51:23.556Z,16.20
2018-10-12T08:53:51.721Z,16.47
2018-10-12T08:56:19.871Z,15.97
2018-10-12T08:58:48.176Z,15.27
2018-10-12T09:01:16.326Z,13.53
2018-10-12T09:03:44.715Z,15.07
2018-10-12T09:06:12.910Z,13.93
2018-10-12T09:08:41.040Z,12.07
2018-10-12T09:11:09.183Z,20.33
2018-10-12T09:13:37.405Z,12.63
2018-10-12T09:16:05.876Z,14.90
2018-10-12T09:18:34.156Z,12.73
2018-10-12T09:21:02.358Z,12.90
2018-10-12T09:23:30.532Z,17.37
2018-10-12T09:25:58.682Z,15.03
2018-10-12T09:28:26.914Z,18.57
2018-10-12T09:30:55.120Z,14.10
2018-10-12T09:33:23.306Z,14.23
2018-10-12T09:35:51.487Z,13.20
2018-10-12T09:38:19.634Z,14.30
2018-10-12T09:40:47.778Z,13.57
2018-10-12T09:43:15.995Z,17.00
2018-10-12T09:45:44.123Z,14.47
2018-10-12T09:48:12.273Z,18.30
2018-10-12T09:50:40.435Z,8.83
2018-10-12T09:53:08.602Z,16.27
2018-10-12T09:55:36.810Z,10.60
2018-10-12T09:58:05.316Z,13.13
2018-10-12T10:00:38.834Z,12.60
2018-10-12T10:03:12.437Z,23.60
2018-10-12T10:05:40.670Z,12.93
2018-10-12T10:08:08.889Z,18.37
2018-10-12T10:10:37.033Z,10.97
2018-10-12T10:13:05.235Z,11.00
2018-10-12T10:15:33.442Z,14.33
2018-10-12T10:18:01.838Z,13.23
2018-10-12T10:20:29.731Z,11.20
2018-10-12T10:22:57.863Z,10.67
2018-10-12T10:25:26.356Z,10.53
2018-10-12T10:27:54.559Z,10.40
2018-10-12T10:30:22.780Z,10.83
2018-10-12T10:32:50.934Z,8.37
2018-10-12T10:35:19.087Z,9.70
2018-10-12T10:37:47.333Z,15.23
2018-10-12T10:40:15.714Z,6.83
2018-10-12T10:42:43.939Z,5.90
2018-10-12T10:45:12.171Z,8.43
2018-10-12T10:47:40.301Z,6.17
2018-10-12T10:50:08.619Z,11.43
2018-10-12T10:52:36.820Z,6.70
2018-10-12T10:55:05.111Z,7.47
2018-10-12T10:57:33.279Z,10.47
2018-10-12T11:00:03.787Z,5.17
2018-10-12T11:02:32.078Z,11.23
2018-10-12T11:05:00.561Z,6.70
2018-10-12T11:07:28.758Z,6.20
2018-10-12T11:09:56.929Z,6.17
2018-10-12T11:12:25.274Z,6.03
2018-10-12T11:14:53.400Z,4.40
2018-10-12T11:17:23.197Z,5.17
2018-10-12T11:19:51.463Z,5.10
2018-10-12T11:22:19.767Z,5.63
2018-10-12T11:24:48.180Z,4.73
2018-10-12T11:27:16.444Z,4.97
2018-10-12T11:29:44.695Z,6.87
2018-10-12T11:32:13.067Z,7.30
2018-10-12T11:34:41.303Z,4.97
2018-10-12T11:37:09.579Z,8.03
2018-10-12T11:39:37.821Z,6.33
2018-10-12T11:42:06.008Z,6.63
2018-10-12T11:44:34.235Z,5.40
2018-10-12T11:47:02.561Z,9.30
2018-10-12T11:49:30.702Z,7.13
2018-10-12T11:51:58.960Z,4.90
2018-10-12T11:54:27.123Z,5.07
2018-10-12T11:56:55.302Z,5.80
2018-10-12T11:59:24.044Z,9.07
2018-10-12T12:01:52.212Z,4.87
2018-10-12T12:04:20.651Z,5.70
2018-10-12T12:06:48.982Z,7.20
2018-10-12T12:09:17.377Z,4.37
2018-10-12T12:11:45.679Z,7.07
2018-10-12T12:14:13.912Z,4.83
2018-10-12T12:16:42.114Z,6.73
2018-10-12T12:19:10.319Z,4.57
2018-10-12T12:21:38.524Z,5.57
2018-10-12T12:24:06.688Z,6.27
2018-10-12T12:26:34.867Z,4.83
2018-10-12T12:29:03.039Z,6.90
2018-10-12T12:31:31.178Z,5.17
2018-10-12T12:33:59.315Z,6.20
2018-10-12T12:36:27.499Z,4.07
2018-10-12T12:38:55.671Z,4.63
2018-10-12T12:41:23.855Z,4.63
2018-10-12T12:43:52.135Z,3.23
2018-10-12T12:46:20.278Z,6.17
2018-10-12T12:48:48.855Z,5.33
2018-10-12T12:51:16.666Z,3.47
2018-10-12T12:53:44.964Z,3.67
2018-10-12T12:56:13.388Z,6.03
2018-10-12T12:58:41.731Z,3.53
2018-10-12T13:01:09.906Z,4.53
2018-10-12T13:03:38.062Z,5.97
2018-10-12T13:06:06.235Z,4.17
2018-10-12T13:08:34.411Z,3.30
2018-10-12T13:11:02.591Z,3.80
2018-10-12T13:13:31.039Z,3.10
2018-10-12T13:15:59.282Z,5.57
2018-10-12T13:18:27.563Z,4.40
2018-10-12T13:20:55.890Z,5.03
2018-10-12T13:23:24.092Z,3.33
2018-10-12T13:25:52.431Z,8.33
2018-10-12T13:28:20.575Z,5.90
2018-10-12T13:30:48.742Z,4.87
2018-10-12T13:33:17.022Z,5.20
2018-10-12T13:35:45.185Z,4.23
2018-10-12T13:38:13.401Z,6.60
2018-10-12T13:40:41.580Z,4.37
2018-10-12T13:43:09.762Z,5.93
2018-10-12T13:45:37.917Z,3.10
2018-10-12T13:48:06.097Z,4.63
2018-10-12T13:50:34.290Z,3.17
2018-10-12T13:53:02.579Z,3.90
2018-10-12T13:55:30.750Z,6.40
2018-10-12T13:57:58.898Z,4.17
2018-10-12T14:00:27.132Z,6.30
2018-10-12T14:02:55.252Z,3.53
2018-10-12T14:05:23.669Z,6.90
2018-10-12T14:07:51.829Z,4.73
2018-10-12T14:10:20.092Z,5.33
2018-10-12T14:12:48.487Z,3.90
2018-10-12T14:15:17.106Z,3.67
2018-10-12T14:17:45.302Z,3.13
2018-10-12T14:20:13.505Z,4.07
2018-10-12T14:22:41.648Z,3.77
2018-10-12T14:25:09.814Z,4.20
2018-10-12T14:27:38.052Z,5.80
2018-10-12T14:30:06.420Z,3.37
2018-10-12T14:32:34.599Z,5.27
2018-10-12T14:35:02.773Z,4.57
2018-10-12T14:37:30.941Z,8.80
2018-10-12T14:39:59.251Z,5.93
2018-10-12T14:42:27.406Z,7.43
2018-10-12T14:44:55.640Z,3.63
2018-10-12T14:47:23.818Z,3.73
2018-10-12T14:49:51.992Z,3.77
2018-10-12T14:52:28.436Z,5.90
2018-10-12T14:54:57.039Z,3.80
2018-10-12T14:57:25.270Z,3.43
2018-10-12T14:59:53.746Z,6.90
2018-10-12T15:02:25.091Z,4.43
2018-10-12T15:05:03.326Z,6.13
2018-10-12T15:07:36.366Z,4.90
2018-10-12T15:14:55.634Z,5.40
2018-10-12T15:17:23.930Z,6.57
2018-10-12T15:19:52.230Z,7.20
2018-10-12T15:22:20.443Z,4.40
2018-10-12T15:24:48.818Z,6.13
2018-10-12T15:27:17.322Z,6.97
2018-10-12T15:29:45.507Z,3.67
2018-10-12T15:32:13.879Z,5.23
2018-10-12T15:34:42.161Z,4.70
2018-10-12T15:37:10.339Z,4.00
2018-10-12T15:39:38.602Z,4.27
2018-10-12T15:42:06.822Z,5.37
2018-10-12T15:44:35.110Z,4.83
2018-10-12T15:47:03.312Z,6.30
2018-10-12T15:49:31.538Z,4.77
2018-10-12T15:51:59.730Z,4.20
2018-10-12T15:54:27.892Z,4.43
2018-10-12T15:56:56.071Z,4.47
2018-10-12T15:59:24.731Z,6.33
2018-10-12T16:01:52.910Z,3.20
2018-10-12T16:04:21.093Z,7.20
2018-10-12T16:06:49.546Z,6.47
2018-10-12T16:09:17.825Z,4.83
2018-10-12T16:11:46.306Z,5.33
2018-10-12T16:14:14.989Z,6.23
2018-10-12T16:16:43.502Z,6.23
2018-10-12T16:19:11.691Z,5.80
2018-10-12T16:21:39.918Z,7.00
2018-10-12T16:24:11.641Z,6.07
2018-10-12T16:26:39.863Z,6.77
2018-10-12T16:29:08.041Z,6.23
2018-10-12T16:31:36.231Z,10.33
2018-10-12T16:34:05.563Z,14.63
2018-10-12T16:36:33.811Z,7.17
2018-10-12T16:39:01.959Z,8.10
2018-10-12T16:41:30.168Z,9.73
2018-10-12T16:43:58.365Z,11.03
2018-10-12T16:46:26.530Z,7.93
2018-10-12T16:48:54.797Z,10.83
2018-10-12T16:51:22.938Z,12.30
2018-10-12T16:53:51.138Z,10.57
2018-10-12T16:56:19.384Z,8.77
2018-10-12T16:58:47.602Z,10.37
2018-10-12T17:01:15.780Z,9.93
2018-10-12T17:03:44.187Z,8.07
2018-10-12T17:06:12.383Z,8.87
2018-10-12T17:08:40.526Z,11.30
2018-10-12T17:11:08.735Z,8.93
2018-10-12T17:13:36.937Z,9.93
2018-10-12T17:16:05.120Z,12.67
2018-10-12T17:18:33.699Z,11.80
2018-10-12T17:21:01.861Z,10.43
2018-10-12T17:23:30.066Z,9.63
2018-10-12T17:25:58.432Z,11.77
2018-10-12T17:28:26.815Z,14.47
2018-10-12T17:30:55.112Z,10.97
2018-10-12T17:33:23.287Z,12.37
2018-10-12T17:35:51.494Z,11.33
2018-10-12T17:38:19.684Z,13.27
2018-10-12T17:40:47.933Z,14.03
2018-10-12T17:43:16.120Z,12.00
2018-10-12T17:45:44.301Z,10.60
2018-10-12T17:48:12.514Z,12.77
2018-10-12T17:50:40.739Z,12.20
2018-10-12T17:53:08.916Z,10.83
2018-10-12T17:55:37.111Z,15.63
2018-10-12T17:58:05.251Z,15.37
2018-10-12T18:00:33.457Z,10.47
2018-10-12T18:03:01.580Z,17.03
2018-10-12T18:05:29.766Z,10.77
2018-10-12T18:07:57.918Z,9.23
2018-10-12T18:10:26.083Z,10.03
2018-10-12T18:12:54.234Z,11.70
2018-10-12T18:15:22.500Z,9.53
2018-10-12T18:17:50.676Z,9.33
2018-10-12T18:20:18.839Z,7.97
2018-10-12T18:22:46.995Z,6.93
2018-10-12T18:25:15.183Z,10.50
2018-10-12T18:27:43.311Z,7.50
2018-10-12T18:30:11.504Z,10.10
2018-10-12T18:32:39.924Z,10.43
2018-10-12T18:35:08.074Z,11.83
2018-10-12T18:37:36.240Z,8.07
2018-10-12T18:40:04.444Z,9.23
2018-10-12T18:42:32.621Z,10.70
2018-10-12T18:45:00.829Z,6.27
2018-10-12T18:47:28.998Z,6.33
2018-10-12T18:49:57.163Z,6.57
2018-10-12T18:52:25.335Z,8.17
2018-10-12T18:54:53.719Z,5.83
2018-10-12T18:57:21.908Z,11.77
2018-10-12T18:59:50.139Z,5.23
2018-10-12T19:02:18.348Z,6.67
2018-10-12T19:04:46.898Z,6.37
2018-10-12T19:07:14.922Z,6.00
2018-10-12T19:09:43.067Z,8.80
2018-10-12T19:12:11.233Z,8.07
2018-10-12T19:14:39.431Z,9.00
2018-10-12T19:17:07.604Z,9.00
2018-10-12T19:19:35.810Z,6.90
2018-10-12T19:22:03.968Z,6.63
2018-10-12T19:24:32.139Z,7.83
2018-10-12T19:27:00.405Z,5.43
2018-10-12T19:29:28.603Z,6.00
2018-10-12T19:31:57.286Z,6.10
2018-10-12T19:34:25.423Z,7.07
2018-10-12T19:36:53.632Z,5.43
2018-10-12T19:39:21.807Z,7.67
2018-10-12T19:41:49.995Z,7.13
2018-10-12T19:44:18.130Z,9.63
2018-10-12T19:46:46.401Z,8.20
2018-10-12T19:49:14.666Z,6.60
2018-10-12T19:51:42.803Z,6.30
2018-10-12T19:54:10.963Z,8.90
2018-10-12T19:56:39.099Z,9.17
2018-10-12T19:59:07.300Z,7.20
2018-10-12T20:01:35.485Z,7.33
2018-10-12T20:04:03.623Z,7.90
2018-10-12T20:06:31.807Z,5.80
2018-10-12T20:08:59.962Z,7.67
2018-10-12T20:11:28.127Z,6.57
2018-10-12T20:13:56.299Z,6.80
2018-10-12T20:16:24.470Z,6.00
2018-10-12T20:18:52.687Z,9.13
2018-10-12T20:21:21.098Z,6.60
2018-10-12T20:23:49.309Z,7.87
2018-10-12T20:26:17.458Z,5.87
2018-10-12T20:28:45.802Z,7.10
2018-10-12T20:31:13.947Z,9.57
2018-10-12T20:33:42.128Z,6.67
2018-10-12T20:36:10.281Z,6.43
2018-10-12T20:38:38.468Z,8.53
2018-10-12T20:41:06.643Z,9.27
2018-10-12T20:43:34.799Z,6.87
2018-10-12T20:46:02.942Z,8.83
2018-10-12T20:48:31.098Z,7.33
2018-10-12T20:50:59.247Z,8.13
2018-10-12T20:53:27.671Z,7.43
2018-10-12T20:55:55.819Z,7.27
2018-10-12T20:58:23.963Z,7.93
2018-10-12T21:00:52.116Z,8.53
2018-10-12T21:03:20.267Z,10.20
2018-10-12T21:05:48.453Z,12.63
2018-10-12T21:08:16.603Z,9.20
2018-10-12T21:10:44.818Z,10.07
2018-10-12T21:13:12.967Z,7.43
2018-10-12T21:15:41.239Z,10.70
2018-10-12T21:18:09.478Z,9.20
2018-10-12T21:20:37.722Z,8.13
2018-10-12T21:23:05.879Z,7.50
2018-10-12T21:25:34.025Z,7.50
2018-10-12T21:28:02.210Z,7.60
2018-10-12T21:30:30.383Z,8.70
2018-10-12T21:32:58.571Z,8.43
2018-10-12T21:35:26.766Z,6.13
2018-10-12T21:37:55.004Z,7.63
2018-10-12T21:40:23.180Z,6.97
2018-10-12T21:42:51.311Z,9.10
2018-10-12T21:45:19.456Z,7.80
2018-10-12T21:47:47.618Z,9.07
2018-10-12T21:50:15.856Z,8.93
2018-10-12T21:52:44.014Z,9.23
2018-10-12T21:55:12.207Z,6.57
2018-10-12T21:57:40.376Z,9.17
2018-10-12T22:00:08.647Z,6.33
2018-10-12T22:02:36.717Z,8.10
2018-10-12T22:05:05.155Z,11.00
2018-10-12T22:07:33.361Z,13.13
2018-10-12T22:10:01.726Z,8.97
2018-10-12T22:12:29.900Z,7.33
2018-10-12T22:14:58.071Z,14.37
2018-10-12T22:17:26.223Z,8.23
2018-10-12T22:19:54.467Z,7.77
2018-10-12T22:22:22.625Z,8.13
2018-10-12T22:24:51.130Z,11.83
2018-10-12T22:27:19.296Z,7.50
2018-10-12T22:29:47.451Z,8.13
2018-10-12T22:32:15.574Z,9.63
2018-10-12T22:34:43.732Z,8.73
2018-10-12T22:37:11.902Z,10.27
2018-10-12T22:39:42.407Z,10.30
2018-10-12T22:42:11.258Z,9.67
2018-10-12T22:44:39.422Z,8.93
2018-10-12T22:47:07.947Z,10.77
2018-10-12T22:49:36.186Z,7.20
2018-10-12T22:52:04.371Z,6.73
2018-10-12T22:54:32.542Z,7.47
2018-10-12T22:57:00.714Z,9.20
2018-10-12T22:59:28.859Z,7.70
2018-10-12T23:01:57.086Z,7.30
2018-10-12T23:04:25.290Z,6.87
2018-10-12T23:06:53.680Z,7.20
2018-10-12T23:09:21.831Z,13.50
2018-10-12T23:11:49.993Z,8.57
2018-10-12T23:14:18.165Z,10.00
2018-10-12T23:16:46.515Z,9.27
2018-10-12T23:19:14.684Z,6.50
2018-10-12T23:21:42.840Z,6.97
2018-10-12T23:24:11.012Z,9.30
2018-10-12T23:26:39.227Z,9.10
2018-10-12T23:29:07.355Z,6.87
2018-10-12T23:31:35.522Z,7.77
2018-10-12T23:34:06.978Z,6.63
2018-10-12T23:36:35.134Z,6.73
2018-10-12T23:39:04.833Z,7.90
2018-10-12T23:41:33.261Z,7.03
2018-10-12T23:44:01.406Z,6.70
2018-10-12T23:46:29.555Z,6.77
2018-10-12T23:48:57.719Z,5.80
2018-10-12T23:51:25.875Z,6.63
2018-10-12T23:53:54.052Z,8.93
2018-10-12T23:56:22.201Z,8.20
2018-10-12T23:58:50.394Z,7.07
